createdAt,value
2023-03-07T00:02:08.475Z,23.00
2023-03-07T00:04:38.133Z,22.83
2023-03-07T00:07:06.380Z,30.77
2023-03-07T00:09:34.608Z,26.55
2023-03-07T00:12:02.659Z,23.38
2023-03-07T00:14:30.687Z,23.83
2023-03-07T00:16:58.790Z,22.70
2023-03-07T00:19:26.922Z,27.08
2023-03-07T00:21:56.309Z,23.80
2023-03-07T00:24:24.416Z,23.33
2023-03-07T00:26:52.612Z,25.58
2023-03-07T00:29:20.650Z,24.30
2023-03-07T00:31:50.289Z,30.00
2023-03-07T00:34:18.435Z,25.27
2023-03-07T00:36:46.446Z,21.27
2023-03-07T00:39:15.901Z,19.90
2023-03-07T00:41:43.993Z,20.58
2023-03-07T00:44:11.934Z,27.65
2023-03-07T00:46:39.967Z,24.45
2023-03-07T00:49:08.452Z,22.48
2023-03-07T00:51:36.473Z,20.85
2023-03-07T00:54:05.287Z,26.35
2023-03-07T00:56:35.372Z,25.42
2023-03-07T00:59:03.865Z,17.30
2023-03-07T01:01:32.094Z,21.05
2023-03-07T01:04:00.261Z,22.10
2023-03-07T01:06:32.442Z,18.58
2023-03-07T01:09:04.311Z,18.08
2023-03-07T01:11:33.457Z,23.45
2023-03-07T01:14:05.400Z,22.52
2023-03-07T01:16:37.532Z,25.38
2023-03-07T01:19:08.530Z,16.48
2023-03-07T01:21:38.605Z,23.65
2023-03-07T01:24:07.543Z,22.85
2023-03-07T01:26:36.396Z,24.05
2023-03-07T01:29:07.218Z,14.35
2023-03-07T01:31:37.484Z,31.70
2023-03-07T01:34:06.632Z,16.25
2023-03-07T01:36:39.400Z,16.63
2023-03-07T01:39:13.095Z,18.40
2023-03-07T01:42:10.710Z,16.40
2023-03-07T01:45:06.016Z,15.93
2023-03-07T01:47:43.540Z,17.70
2023-03-07T01:50:14.980Z,14.32
2023-03-07T01:52:46.750Z,22.13
2023-03-07T01:55:17.627Z,17.23
2023-03-07T01:57:50.585Z,16.13
2023-03-07T02:00:28.713Z,14.73
2023-03-07T02:03:03.652Z,15.32
2023-03-07T02:05:35.474Z,15.88
2023-03-07T02:08:04.729Z,15.68
2023-03-07T02:10:59.691Z,21.70
2023-03-07T02:13:27.856Z,20.38
2023-03-07T02:15:58.682Z,17.45
2023-03-07T02:18:29.582Z,24.05
2023-03-07T02:21:06.021Z,15.38
2023-03-07T02:23:43.806Z,19.15
2023-03-07T02:26:17.774Z,14.88
2023-03-07T02:28:48.569Z,19.40
2023-03-07T02:31:17.247Z,16.08
2023-03-07T02:33:45.369Z,19.17
2023-03-07T02:36:18.253Z,18.10
2023-03-07T02:38:57.953Z,17.65
2023-03-07T02:41:30.774Z,15.80
2023-03-07T02:44:02.649Z,14.85
2023-03-07T02:46:31.039Z,17.77
2023-03-07T02:48:59.130Z,13.32
2023-03-07T02:51:27.179Z,21.10
2023-03-07T02:53:55.171Z,25.48
2023-03-07T02:56:23.303Z,16.48
2023-03-07T02:58:51.382Z,13.20
2023-03-07T03:01:20.751Z,14.02
2023-03-07T03:03:49.517Z,14.88
2023-03-07T03:06:17.643Z,21.10
2023-03-07T03:08:45.770Z,15.32
2023-03-07T03:11:17.744Z,19.50
2023-03-07T03:13:46.369Z,19.85
2023-03-07T03:16:14.448Z,15.07
2023-03-07T03:18:44.188Z,19.98
2023-03-07T03:21:12.900Z,18.40
2023-03-07T03:23:40.884Z,19.48
2023-03-07T03:26:11.664Z,18.80
2023-03-07T03:28:40.432Z,15.57
2023-03-07T03:31:10.616Z,22.58
2023-03-07T03:33:40.862Z,24.00
2023-03-07T03:36:13.463Z,17.95
2023-03-07T03:38:42.258Z,19.40
2023-03-07T03:41:15.732Z,23.58
2023-03-07T03:43:44.788Z,21.65
2023-03-07T03:46:13.251Z,16.17
2023-03-07T03:48:41.623Z,17.85
2023-03-07T03:51:14.487Z,22.27
2023-03-07T03:54:45.508Z,17.70
2023-03-07T03:57:17.843Z,19.00
2023-03-07T03:59:46.464Z,26.10
2023-03-07T04:02:16.447Z,19.55
2023-03-07T04:04:44.641Z,19.30
2023-03-07T04:07:14.088Z,19.05
2023-03-07T04:10:33.021Z,21.50
2023-03-07T04:13:01.043Z,23.05
2023-03-07T04:15:29.499Z,20.15
2023-03-07T04:17:57.564Z,32.92
2023-03-07T04:20:26.016Z,21.73
2023-03-07T04:22:55.438Z,21.92
2023-03-07T04:25:49.147Z,14.55
2023-03-07T04:28:17.728Z,24.75
2023-03-07T04:30:47.117Z,22.05
2023-03-07T04:33:15.161Z,17.42
2023-03-07T04:35:43.644Z,24.17
2023-03-07T04:38:13.722Z,16.55
2023-03-07T04:40:41.725Z,18.40
2023-03-07T04:43:09.854Z,19.05
2023-03-07T04:45:38.291Z,17.15
2023-03-07T04:48:06.913Z,19.45
2023-03-07T04:50:37.148Z,18.90
2023-03-07T04:53:05.934Z,23.73
2023-03-07T04:55:35.432Z,26.08
2023-03-07T04:58:04.341Z,17.92
2023-03-07T05:00:57.879Z,22.23
2023-03-07T05:03:28.287Z,22.17
2023-03-07T05:06:21.578Z,20.15
2023-03-07T05:08:51.909Z,21.95
2023-03-07T05:11:21.400Z,19.55
2023-03-07T05:13:50.630Z,19.92
2023-03-07T05:16:21.206Z,15.30
2023-03-07T05:18:49.697Z,21.40
2023-03-07T05:21:18.269Z,14.88
2023-03-07T05:23:46.461Z,17.67
2023-03-07T05:26:15.115Z,15.45
2023-03-07T05:28:44.917Z,19.90
2023-03-07T05:31:13.004Z,10.48
2023-03-07T05:33:42.703Z,15.10
2023-03-07T05:36:11.684Z,19.08
2023-03-07T05:38:40.051Z,16.27
2023-03-07T05:41:08.122Z,9.15
2023-03-07T05:43:36.530Z,12.13
2023-03-07T05:46:06.333Z,11.95
2023-03-07T05:48:34.439Z,13.90
2023-03-07T05:51:02.651Z,12.27
2023-03-07T05:54:28.321Z,14.32
2023-03-07T05:56:56.576Z,12.73
2023-03-07T05:59:25.571Z,14.38
2023-03-07T06:01:55.490Z,10.23
2023-03-07T06:04:23.569Z,13.45
2023-03-07T06:06:51.904Z,10.32
2023-03-07T06:09:20.653Z,14.68
2023-03-07T06:11:48.877Z,10.30
2023-03-07T06:14:16.907Z,12.00
2023-03-07T06:16:45.338Z,9.32
2023-03-07T06:19:15.046Z,13.13
2023-03-07T06:21:44.302Z,13.48
2023-03-07T06:24:12.444Z,12.18
2023-03-07T06:26:41.326Z,13.30
2023-03-07T06:29:09.747Z,8.52
2023-03-07T06:31:38.305Z,6.68
2023-03-07T06:34:06.520Z,6.53
2023-03-07T06:36:36.164Z,9.02
2023-03-07T06:39:05.272Z,7.97
2023-03-07T06:41:34.960Z,10.90
2023-03-07T06:44:04.942Z,10.77
2023-03-07T06:46:34.358Z,10.13
2023-03-07T06:49:07.323Z,11.27
2023-03-07T06:51:38.106Z,7.15
2023-03-07T06:54:07.015Z,8.98
2023-03-07T06:56:35.909Z,7.65
2023-03-07T06:59:04.829Z,9.18
2023-03-07T07:01:33.045Z,4.93
2023-03-07T07:04:01.454Z,11.68
2023-03-07T07:06:31.329Z,5.30
2023-03-07T07:09:01.082Z,7.30
2023-03-07T07:11:34.902Z,6.30
2023-03-07T07:14:04.287Z,7.40
2023-03-07T07:16:33.975Z,10.63
2023-03-07T07:19:02.088Z,6.53
2023-03-07T07:21:30.746Z,11.82
2023-03-07T07:24:00.437Z,4.78
2023-03-07T07:26:30.087Z,7.32
2023-03-07T07:29:00.541Z,6.13
2023-03-07T07:31:29.371Z,5.53
2023-03-07T07:33:57.577Z,5.93
2023-03-07T07:36:28.523Z,7.65
2023-03-07T07:38:56.731Z,6.57
2023-03-07T07:41:26.881Z,5.35
2023-03-07T07:43:57.145Z,4.63
2023-03-07T07:46:34.475Z,6.50
2023-03-07T07:49:04.151Z,7.03
2023-03-07T07:51:33.813Z,7.80
2023-03-07T07:54:02.074Z,7.07
2023-03-07T07:56:31.579Z,5.85
2023-03-07T07:58:59.664Z,6.82
2023-03-07T08:01:29.708Z,13.05
2023-03-07T08:03:57.736Z,4.45
2023-03-07T08:06:28.024Z,7.75
2023-03-07T08:08:56.680Z,6.57
2023-03-07T08:11:25.159Z,5.43
2023-03-07T08:13:54.539Z,6.10
2023-03-07T08:16:24.243Z,8.77
2023-03-07T08:18:53.620Z,9.48
2023-03-07T08:21:22.265Z,12.07
2023-03-07T08:23:50.278Z,6.32
2023-03-07T08:26:18.638Z,6.72
2023-03-07T08:28:46.809Z,5.72
2023-03-07T08:31:18.737Z,5.35
2023-03-07T08:33:48.224Z,4.93
2023-03-07T08:36:30.876Z,9.27
2023-03-07T08:38:58.933Z,9.07
2023-03-07T08:41:27.092Z,8.85
2023-03-07T08:43:55.138Z,8.23
2023-03-07T08:46:44.949Z,17.60
2023-03-07T08:49:13.581Z,9.45
2023-03-07T08:51:42.851Z,11.88
2023-03-07T08:54:10.919Z,9.93
2023-03-07T08:56:39.370Z,12.77
2023-03-07T08:59:07.476Z,11.85
2023-03-07T09:02:06.762Z,9.13
2023-03-07T09:04:43.474Z,9.65
2023-03-07T09:07:11.664Z,8.30
2023-03-07T09:09:39.675Z,9.80
2023-03-07T09:12:08.148Z,11.13
2023-03-07T09:14:36.582Z,16.65
2023-03-07T09:17:08.304Z,8.18
2023-03-07T09:19:36.475Z,8.95
2023-03-07T09:22:04.634Z,8.63
2023-03-07T09:24:33.069Z,10.90
2023-03-07T09:27:01.161Z,14.75
2023-03-07T09:29:29.396Z,7.88
2023-03-07T09:31:57.655Z,10.65
2023-03-07T09:34:27.212Z,10.70
2023-03-07T09:36:55.296Z,13.95
2023-03-07T09:39:23.358Z,12.05
2023-03-07T09:42:11.151Z,9.20
2023-03-07T09:44:59.525Z,9.30
2023-03-07T09:48:02.835Z,9.73
2023-03-07T09:50:40.043Z,11.60
2023-03-07T09:53:18.978Z,7.93
2023-03-07T09:55:51.215Z,7.03
2023-03-07T09:58:23.584Z,10.15
2023-03-07T10:00:57.529Z,10.90
2023-03-07T10:03:34.750Z,10.73
2023-03-07T10:06:13.922Z,9.30
2023-03-07T10:08:42.113Z,9.32
2023-03-07T10:11:24.785Z,10.38
2023-03-07T10:14:14.492Z,11.15
2023-03-07T10:16:51.701Z,10.93
2023-03-07T10:19:31.399Z,8.15
2023-03-07T10:22:06.290Z,8.43
2023-03-07T10:24:55.069Z,8.13
2023-03-07T10:27:26.932Z,11.95
2023-03-07T10:29:57.476Z,7.95
2023-03-07T10:32:33.188Z,11.55
2023-03-07T10:35:06.082Z,8.65
2023-03-07T10:37:50.376Z,8.13
2023-03-07T10:40:24.830Z,6.60
2023-03-07T10:42:53.709Z,8.77
2023-03-07T10:45:22.192Z,8.43
2023-03-07T10:47:50.474Z,7.97
2023-03-07T10:50:39.395Z,8.88
2023-03-07T10:53:19.679Z,6.95
2023-03-07T10:55:47.900Z,9.98
2023-03-07T10:58:22.046Z,8.48
2023-03-07T11:01:03.164Z,6.28
2023-03-07T11:03:49.707Z,9.25
2023-03-07T11:06:29.905Z,9.55
2023-03-07T11:09:10.958Z,4.60
2023-03-07T11:11:39.198Z,9.45
2023-03-07T11:14:09.416Z,15.27
2023-03-07T11:16:42.755Z,8.18
2023-03-07T11:19:29.385Z,7.35
2023-03-07T11:21:59.276Z,12.05
2023-03-07T11:24:29.907Z,6.65
2023-03-07T11:27:00.494Z,9.00
2023-03-07T11:29:29.419Z,10.00
2023-03-07T11:32:11.575Z,11.57
2023-03-07T11:34:45.273Z,10.87
2023-03-07T11:37:28.737Z,8.32
2023-03-07T11:40:19.570Z,6.38
2023-03-07T11:43:00.471Z,10.82
2023-03-07T11:45:38.459Z,5.95
2023-03-07T11:48:20.838Z,8.75
2023-03-07T11:50:55.274Z,8.93
2023-03-07T11:53:35.329Z,8.32
2023-03-07T11:56:25.677Z,9.38
2023-03-07T11:59:22.447Z,7.65
2023-03-07T12:01:55.558Z,10.00
2023-03-07T12:04:48.582Z,9.02
2023-03-07T12:07:38.485Z,6.32
2023-03-07T12:10:38.155Z,7.07
2023-03-07T12:13:18.965Z,17.00
2023-03-07T12:15:53.547Z,6.95
2023-03-07T12:18:51.026Z,8.40
2023-03-07T12:21:37.944Z,10.18
2023-03-07T12:24:11.637Z,5.63
2023-03-07T12:26:51.489Z,5.23
2023-03-07T12:29:27.615Z,8.05
2023-03-07T12:32:00.435Z,7.38
2023-03-07T12:34:35.453Z,16.43
2023-03-07T12:37:07.905Z,7.82
2023-03-07T12:39:45.190Z,5.00
2023-03-07T12:42:17.132Z,6.72
2023-03-07T12:44:51.103Z,7.40
2023-03-07T12:47:24.751Z,4.70
2023-03-07T12:49:57.962Z,6.13
2023-03-07T12:52:40.811Z,11.32
2023-03-07T12:55:19.281Z,7.40
2023-03-07T12:57:57.059Z,9.05
2023-03-07T13:00:26.860Z,6.78
2023-03-07T13:03:02.863Z,9.35
2023-03-07T13:05:31.912Z,7.30
2023-03-07T13:08:02.796Z,6.63
2023-03-07T13:10:32.175Z,4.78
2023-03-07T13:13:00.339Z,4.47
2023-03-07T13:16:04.314Z,5.47
2023-03-07T13:18:33.502Z,5.88
2023-03-07T13:21:14.130Z,5.93
2023-03-07T13:23:42.475Z,5.30
2023-03-07T13:26:14.951Z,5.20
2023-03-07T13:28:51.547Z,4.33
2023-03-07T13:31:46.236Z,5.35
2023-03-07T13:34:53.013Z,4.03
2023-03-07T13:37:56.740Z,7.35
2023-03-07T13:40:56.345Z,4.95
2023-03-07T13:43:59.924Z,4.80
2023-03-07T13:46:58.711Z,7.47
2023-03-07T13:49:41.969Z,7.53
2023-03-07T13:52:32.311Z,7.03
2023-03-07T13:55:02.993Z,7.75
2023-03-07T13:57:39.848Z,6.68
2023-03-07T14:00:28.185Z,4.65
2023-03-07T14:02:57.924Z,5.50
2023-03-07T14:05:26.618Z,5.32
2023-03-07T14:07:55.194Z,3.85
2023-03-07T14:10:27.964Z,6.35
2023-03-07T14:13:13.153Z,3.88
2023-03-07T14:15:50.960Z,5.72
2023-03-07T14:18:31.349Z,4.72
2023-03-07T14:21:06.918Z,4.05
2023-03-07T14:24:06.248Z,7.97
2023-03-07T14:26:37.011Z,6.18
2023-03-07T14:29:16.003Z,4.93
2023-03-07T14:31:44.735Z,4.38
2023-03-07T14:34:27.666Z,5.10
2023-03-07T14:36:58.248Z,11.25
2023-03-07T14:39:37.473Z,4.18
2023-03-07T14:42:17.121Z,9.07
2023-03-07T14:45:09.604Z,5.20
2023-03-07T14:47:50.670Z,6.30
2023-03-07T14:50:22.260Z,8.77
2023-03-07T14:52:52.706Z,4.95
2023-03-07T14:55:24.408Z,6.00
2023-03-07T14:57:54.704Z,7.13
2023-03-07T15:00:26.134Z,13.07
2023-03-07T15:02:56.220Z,11.40
2023-03-07T15:05:28.395Z,9.30
2023-03-07T15:07:57.122Z,18.67
2023-03-07T15:10:31.558Z,12.88
2023-03-07T15:12:59.957Z,5.72
2023-03-07T15:15:33.489Z,5.75
2023-03-07T15:18:07.330Z,7.50
2023-03-07T15:20:37.039Z,6.88
2023-03-07T15:23:07.533Z,6.20
2023-03-07T15:25:38.978Z,6.35
2023-03-07T15:28:16.830Z,3.53
2023-03-07T15:30:51.137Z,4.07
2023-03-07T15:33:25.747Z,4.10
2023-03-07T15:36:21.634Z,2.85
2023-03-07T15:38:51.691Z,5.47
2023-03-07T15:41:27.642Z,5.50
2023-03-07T15:44:06.853Z,5.30
2023-03-07T15:46:36.834Z,7.68
2023-03-07T15:49:05.080Z,4.57
2023-03-07T15:51:38.685Z,6.35
2023-03-07T15:54:23.375Z,5.47
2023-03-07T15:56:56.589Z,5.60
2023-03-07T15:59:29.346Z,5.95
2023-03-07T16:01:57.489Z,5.80
2023-03-07T16:04:38.352Z,6.80
2023-03-07T16:07:17.280Z,4.65
2023-03-07T16:09:45.328Z,8.45
2023-03-07T16:12:14.719Z,3.67
2023-03-07T16:14:43.215Z,4.30
2023-03-07T16:17:18.954Z,4.53
2023-03-07T16:19:46.967Z,9.05
2023-03-07T16:23:24.030Z,4.78
2023-03-07T16:25:53.419Z,5.10
2023-03-07T16:28:21.436Z,6.78
2023-03-07T16:30:49.819Z,5.63
2023-03-07T16:33:17.824Z,8.13
2023-03-07T16:35:46.307Z,4.15
2023-03-07T16:38:14.745Z,4.38
2023-03-07T16:40:45.693Z,5.53
2023-03-07T16:44:48.865Z,5.60
2023-03-07T16:47:19.135Z,4.88
2023-03-07T16:49:47.614Z,6.68
2023-03-07T16:52:15.667Z,4.65
2023-03-07T16:54:43.625Z,4.40
2023-03-07T16:57:15.486Z,11.15
2023-03-07T16:59:46.547Z,7.47
2023-03-07T17:02:17.206Z,6.15
2023-03-07T17:04:46.886Z,4.10
2023-03-07T17:07:19.965Z,7.85
2023-03-07T17:09:47.968Z,3.70
2023-03-07T17:16:54.865Z,5.20
2023-03-07T17:19:26.303Z,5.78
2023-03-07T17:21:56.418Z,5.80
2023-03-07T17:24:24.551Z,4.03
2023-03-07T17:26:53.629Z,5.85
2023-03-07T17:29:29.286Z,5.43
2023-03-07T17:31:57.436Z,7.45
2023-03-07T17:34:27.524Z,4.72
2023-03-07T17:36:57.383Z,4.63
2023-03-07T17:39:25.788Z,3.22
2023-03-07T17:41:53.777Z,12.38
2023-03-07T17:44:21.938Z,7.55
2023-03-07T17:46:50.036Z,7.70
2023-03-07T17:49:19.700Z,5.65
2023-03-07T17:51:52.910Z,6.70
2023-03-07T17:54:22.269Z,8.40
2023-03-07T17:56:50.970Z,8.57
2023-03-07T17:59:19.034Z,5.82
2023-03-07T18:01:47.244Z,9.15
2023-03-07T18:04:15.463Z,7.05
2023-03-07T18:06:43.527Z,9.45
2023-03-07T18:09:13.461Z,5.43
2023-03-07T18:11:42.843Z,8.57
2023-03-07T18:14:12.625Z,5.68
2023-03-07T18:16:40.715Z,7.30
2023-03-07T18:19:17.332Z,6.40
2023-03-07T18:21:53.758Z,7.90
2023-03-07T18:24:23.511Z,4.63
2023-03-07T18:26:53.468Z,5.53
2023-03-07T18:29:22.298Z,9.50
2023-03-07T18:31:50.670Z,8.23
2023-03-07T18:34:18.694Z,6.03
2023-03-07T18:36:48.116Z,8.15
2023-03-07T18:39:16.206Z,7.63
2023-03-07T18:41:44.584Z,6.72
2023-03-07T18:44:14.077Z,9.13
2023-03-07T18:46:42.234Z,5.78
2023-03-07T18:49:10.276Z,5.93
2023-03-07T18:51:39.453Z,7.68
2023-03-07T18:54:09.012Z,5.35
2023-03-07T18:56:37.227Z,10.45
2023-03-07T18:59:05.442Z,6.53
2023-03-07T19:01:36.105Z,8.35
2023-03-07T19:04:05.742Z,5.22
2023-03-07T19:06:35.844Z,6.90
2023-03-07T19:09:04.657Z,7.70
2023-03-07T19:11:33.470Z,8.52
2023-03-07T19:14:01.548Z,10.82
2023-03-07T19:16:29.746Z,10.38
2023-03-07T19:19:00.096Z,7.00
2023-03-07T19:21:29.857Z,12.18
2023-03-07T19:24:00.226Z,10.18
2023-03-07T19:26:28.856Z,9.15
2023-03-07T19:28:58.303Z,7.47
2023-03-07T19:31:29.526Z,8.93
2023-03-07T19:33:59.444Z,8.02
2023-03-07T19:36:29.007Z,12.02
2023-03-07T19:38:59.158Z,7.95
2023-03-07T19:41:28.736Z,7.70
2023-03-07T19:43:57.153Z,8.32
2023-03-07T19:46:25.748Z,8.65
2023-03-07T19:48:54.116Z,4.70
2023-03-07T19:51:24.957Z,8.07
2023-03-07T19:53:55.980Z,7.30
2023-03-07T19:56:27.233Z,7.45
2023-03-07T19:58:55.541Z,13.45
2023-03-07T20:01:25.098Z,8.88
2023-03-07T20:03:53.265Z,10.63
2023-03-07T20:06:25.314Z,7.70
2023-03-07T20:08:55.326Z,8.10
2023-03-07T20:11:27.156Z,9.18
2023-03-07T20:13:56.880Z,10.57
2023-03-07T20:16:27.596Z,10.30
2023-03-07T20:18:56.648Z,24.80
2023-03-07T20:21:28.381Z,9.80
2023-03-07T20:23:59.439Z,7.07
2023-03-07T20:26:31.518Z,9.73
2023-03-07T20:29:00.351Z,5.60
2023-03-07T20:31:28.900Z,8.10
2023-03-07T20:33:59.210Z,8.82
2023-03-07T20:36:30.237Z,10.13
2023-03-07T20:39:00.099Z,12.60
2023-03-07T20:41:29.815Z,7.47
2023-03-07T20:44:00.095Z,5.95
2023-03-07T20:46:28.431Z,8.38
2023-03-07T20:48:58.061Z,9.95
2023-03-07T20:51:29.561Z,8.38
2023-03-07T20:53:59.176Z,8.48
2023-03-07T20:56:29.642Z,7.68
2023-03-07T20:58:58.818Z,7.97
2023-03-07T21:01:29.206Z,13.45
2023-03-07T21:04:00.493Z,10.10
2023-03-07T21:06:29.982Z,8.18
2023-03-07T21:08:59.524Z,9.27
2023-03-07T21:11:31.369Z,10.93
2023-03-07T21:13:59.427Z,10.45
2023-03-07T21:16:28.317Z,12.85
2023-03-07T21:19:01.294Z,9.50
2023-03-07T21:21:32.730Z,6.30
2023-03-07T21:24:01.118Z,8.00
2023-03-07T21:26:30.668Z,7.10
2023-03-07T21:28:59.756Z,6.10
2023-03-07T21:31:29.335Z,11.70
2023-03-07T21:33:59.144Z,6.95
2023-03-07T21:36:29.216Z,13.68
2023-03-07T21:38:59.660Z,9.75
2023-03-07T21:41:27.924Z,13.93
2023-03-07T21:43:57.265Z,10.00
2023-03-07T21:46:25.713Z,7.07
2023-03-07T21:48:53.746Z,7.78
2023-03-07T21:51:22.864Z,6.38
2023-03-07T21:53:50.938Z,5.60
2023-03-07T21:56:21.613Z,8.35
2023-03-07T21:58:51.317Z,5.50
2023-03-07T22:01:21.442Z,4.30
2023-03-07T22:03:53.856Z,6.85
2023-03-07T22:06:23.103Z,8.80
2023-03-07T22:08:51.230Z,7.38
2023-03-07T22:11:20.654Z,4.30
2023-03-07T22:13:48.723Z,4.88
2023-03-07T22:16:21.583Z,2.50
2023-03-07T22:18:54.230Z,4.57
2023-03-07T22:21:24.872Z,1.83
2023-03-07T22:23:57.546Z,2.42
2023-03-07T22:26:27.495Z,1.25
2023-03-07T22:28:55.916Z,1.35
2023-03-07T22:31:24.687Z,0.80
2023-03-07T22:33:53.430Z,0.60
2023-03-07T22:36:21.825Z,0.75
2023-03-07T22:38:55.115Z,0.80
2023-03-07T22:41:24.153Z,1.30
2023-03-07T22:43:53.509Z,0.90
2023-03-07T22:46:22.211Z,1.20
2023-03-07T22:48:53.860Z,0.60
2023-03-07T22:51:24.644Z,0.90
2023-03-07T22:53:52.672Z,0.60
2023-03-07T22:56:22.643Z,0.90
2023-03-07T22:58:50.746Z,1.60
2023-03-07T23:01:21.737Z,0.90
2023-03-07T23:03:51.361Z,0.80
2023-03-07T23:06:19.990Z,0.60
2023-03-07T23:08:49.856Z,1.25
2023-03-07T23:11:19.599Z,1.30
2023-03-07T23:13:47.856Z,1.08
2023-03-07T23:16:17.724Z,1.08
2023-03-07T23:18:50.512Z,0.70
2023-03-07T23:21:20.747Z,0.82
2023-03-07T23:23:49.233Z,1.00
2023-03-07T23:26:20.068Z,0.50
2023-03-07T23:28:48.527Z,0.50
2023-03-07T23:31:17.847Z,1.65
2023-03-07T23:33:47.826Z,1.00
2023-03-07T23:36:17.525Z,0.80
2023-03-07T23:38:46.675Z,0.40
2023-03-07T23:41:15.548Z,0.93
2023-03-07T23:43:43.706Z,0.75
2023-03-07T23:46:11.812Z,0.60
2023-03-07T23:48:39.888Z,0.70
2023-03-07T23:51:09.546Z,0.50
2023-03-07T23:53:37.674Z,0.80
2023-03-07T23:56:06.669Z,0.63
2023-03-07T23:58:34.907Z,0.90
